Geiger, Alabama
Current Conditions -  °F | °C
As of 1:56 PM on Wednesday 28 Jan 2015 (Local Time) from KNMM Reporting Station
Clear Clear  
Wind Chill: 62°   Ceiling: Unl
Heat Index: 62°   Visibility: 10mi
Dew Point: 25°   Wind: 3mph
Humidity: 24%   Direction: 30°NNE
Pressure: 30.24"   Gusts: NA
Location:  32.7568°N, 88.3127°W
Report Text: KNMM 281956Z 03003KT 10SM CLR 17/M04 A3024 RMK AO2 SLP251 T01671039 $
Loading
Personal Weather Stations






























Interactive Weather Map New forecast layout! Learn more

10-Day Weather Forecast

Advertisements
Track Severe Weather on mobile